createdAt,value
2023-07-24T00:00:04.067Z,8.02
2023-07-24T00:02:30.526Z,7.68
2023-07-24T00:04:57.032Z,7.63
2023-07-24T00:07:24.263Z,7.88
2023-07-24T00:09:50.697Z,8.00
2023-07-24T00:12:17.200Z,8.00
2023-07-24T00:14:43.648Z,8.00
2023-07-24T00:17:10.115Z,8.05
2023-07-24T00:19:36.606Z,7.60
2023-07-24T00:22:03.112Z,8.57
2023-07-24T00:24:31.316Z,7.45
2023-07-24T00:26:57.902Z,8.35
2023-07-24T00:29:24.445Z,7.20
2023-07-24T00:31:50.940Z,7.40
2023-07-24T00:34:17.381Z,7.50
2023-07-24T00:36:43.828Z,7.00
2023-07-24T00:39:10.288Z,7.45
2023-07-24T00:41:36.759Z,6.85
2023-07-24T00:44:03.236Z,6.90
2023-07-24T00:46:33.841Z,7.30
2023-07-24T00:49:01.763Z,6.85
2023-07-24T00:51:28.815Z,7.95
2023-07-24T00:53:56.838Z,7.63
2023-07-24T00:56:24.185Z,7.65
2023-07-24T00:58:50.731Z,8.00
2023-07-24T01:01:18.918Z,7.55
2023-07-24T01:03:45.575Z,7.72
2023-07-24T01:06:12.040Z,7.90
2023-07-24T01:08:38.467Z,8.43
2023-07-24T01:11:14.085Z,8.45
2023-07-24T01:13:45.211Z,7.60
2023-07-24T01:16:17.321Z,7.80
2023-07-24T01:18:45.260Z,8.13
2023-07-24T01:21:13.702Z,8.18
2023-07-24T01:23:56.561Z,7.78
2023-07-24T01:26:25.087Z,7.45
2023-07-24T01:28:51.718Z,8.13
2023-07-24T01:31:18.302Z,7.72
2023-07-24T01:33:45.840Z,7.82
2023-07-24T01:36:13.584Z,8.00
2023-07-24T01:38:40.931Z,8.52
2023-07-24T01:41:07.671Z,7.40
2023-07-24T01:43:34.152Z,8.35
2023-07-24T01:46:00.640Z,8.50
2023-07-24T01:48:27.178Z,8.55
2023-07-24T01:50:53.615Z,8.38
2023-07-24T01:53:20.052Z,8.25
2023-07-24T01:55:46.511Z,8.02
2023-07-24T01:58:12.927Z,7.82
2023-07-24T02:00:39.345Z,7.93
2023-07-24T02:03:06.556Z,8.15
2023-07-24T02:05:33.113Z,8.40
2023-07-24T02:07:59.522Z,7.68
2023-07-24T02:10:25.956Z,8.20
2023-07-24T02:12:52.377Z,8.35
2023-07-24T02:15:18.790Z,8.60
2023-07-24T02:17:45.300Z,8.57
2023-07-24T02:20:11.888Z,9.32
2023-07-24T02:22:38.341Z,8.75
2023-07-24T02:25:05.063Z,8.68
2023-07-24T02:27:35.242Z,8.55
2023-07-24T02:32:28.804Z,8.82
2023-07-24T02:34:55.297Z,8.63
2023-07-24T02:37:21.892Z,7.95
2023-07-24T02:39:48.328Z,8.48
2023-07-24T02:42:14.789Z,8.90
2023-07-24T02:44:41.242Z,8.77
2023-07-24T02:47:07.739Z,8.75
2023-07-24T02:49:34.239Z,7.82
2023-07-24T02:52:00.863Z,8.50
2023-07-24T02:54:27.932Z,7.90
2023-07-24T02:56:54.407Z,7.22
2023-07-24T02:59:20.924Z,8.07
2023-07-24T03:01:47.428Z,8.70
2023-07-24T03:04:13.912Z,8.00
2023-07-24T03:06:40.831Z,7.45
2023-07-24T03:09:07.551Z,7.85
2023-07-24T03:11:33.991Z,7.97
2023-07-24T03:14:00.435Z,7.93
2023-07-24T03:16:26.984Z,7.90
2023-07-24T03:18:53.610Z,9.10
2023-07-24T03:21:21.476Z,8.30
2023-07-24T03:23:47.921Z,7.63
2023-07-24T03:26:14.341Z,8.35
2023-07-24T03:28:40.771Z,7.80
2023-07-24T03:31:07.336Z,7.78
2023-07-24T03:33:33.847Z,7.88
2023-07-24T03:36:00.264Z,7.30
2023-07-24T03:38:26.681Z,7.45
2023-07-24T03:40:53.124Z,7.53
2023-07-24T03:43:19.555Z,7.70
2023-07-24T03:45:46.405Z,8.02
2023-07-24T03:48:12.809Z,7.53
2023-07-24T03:50:39.252Z,7.95
2023-07-24T03:53:05.661Z,7.25
2023-07-24T03:55:32.119Z,7.35
2023-07-24T03:57:58.539Z,6.75
2023-07-24T04:00:24.976Z,6.78
2023-07-24T04:02:51.718Z,7.50
2023-07-24T04:05:18.301Z,7.93
2023-07-24T04:07:44.755Z,7.22
2023-07-24T04:10:11.401Z,7.32
2023-07-24T04:12:37.865Z,7.70
2023-07-24T04:15:04.772Z,7.18
2023-07-24T04:17:31.393Z,7.60
2023-07-24T04:19:57.842Z,7.68
2023-07-24T04:22:24.292Z,7.72
2023-07-24T04:24:50.803Z,7.47
2023-07-24T04:27:17.304Z,7.57
2023-07-24T04:29:43.794Z,7.50
2023-07-24T04:32:10.222Z,6.78
2023-07-24T04:34:36.757Z,6.97
2023-07-24T04:37:03.252Z,7.82
2023-07-24T04:39:29.687Z,7.18
2023-07-24T04:41:56.149Z,7.07
2023-07-24T04:44:22.651Z,7.50
2023-07-24T04:46:49.247Z,6.75
2023-07-24T04:49:15.709Z,7.10
2023-07-24T04:51:42.155Z,7.68
2023-07-24T04:54:08.675Z,8.52
2023-07-24T04:56:35.138Z,7.53
2023-07-24T04:59:01.565Z,7.32
2023-07-24T05:01:28.064Z,7.22
2023-07-24T05:03:54.510Z,7.03
2023-07-24T05:06:20.941Z,7.55
2023-07-24T05:08:47.382Z,7.95
2023-07-24T05:11:13.834Z,7.95
2023-07-24T05:13:40.348Z,7.68
2023-07-24T05:16:06.817Z,7.65
2023-07-24T05:18:33.259Z,7.20
2023-07-24T05:20:59.865Z,7.78
2023-07-24T05:23:26.390Z,7.63
2023-07-24T05:26:03.602Z,7.07
2023-07-24T05:28:32.159Z,6.47
2023-07-24T05:31:04.329Z,6.70
2023-07-24T05:33:31.571Z,7.32
2023-07-24T05:36:02.175Z,7.28
2023-07-24T05:38:29.784Z,7.13
2023-07-24T05:40:57.800Z,7.22
2023-07-24T05:43:24.478Z,6.75
2023-07-24T05:45:55.320Z,6.97
2023-07-24T05:48:22.154Z,7.47
2023-07-24T05:50:48.897Z,6.90
2023-07-24T05:53:16.082Z,7.13
2023-07-24T05:55:43.660Z,6.85
2023-07-24T05:58:10.900Z,6.43
2023-07-24T06:00:40.419Z,6.32
2023-07-24T06:03:08.616Z,7.45
2023-07-24T06:05:35.651Z,7.25
2023-07-24T06:08:02.112Z,7.22
2023-07-24T06:10:28.537Z,7.00
2023-07-24T06:12:55.019Z,7.25
2023-07-24T06:15:21.536Z,6.97
2023-07-24T06:17:48.139Z,7.80
2023-07-24T06:20:14.594Z,7.07
2023-07-24T06:22:41.101Z,6.55
2023-07-24T06:25:07.949Z,6.53
2023-07-24T06:27:34.431Z,6.75
2023-07-24T06:30:12.893Z,6.28
2023-07-24T06:32:42.086Z,7.20
2023-07-24T06:35:08.632Z,6.43
2023-07-24T06:37:35.080Z,6.75
2023-07-24T06:40:01.522Z,7.32
2023-07-24T06:42:27.957Z,7.32
2023-07-24T06:44:54.417Z,7.82
2023-07-24T06:47:20.913Z,7.30
2023-07-24T06:49:48.136Z,7.20
2023-07-24T06:52:14.713Z,7.35
2023-07-24T06:54:41.117Z,7.10
2023-07-24T06:57:07.618Z,7.78
2023-07-24T06:59:34.139Z,7.50
2023-07-24T07:02:00.624Z,7.05
2023-07-24T07:04:27.207Z,7.30
2023-07-24T07:06:53.639Z,7.80
2023-07-24T07:09:20.042Z,7.63
2023-07-24T07:11:46.458Z,8.00
2023-07-24T07:14:13.784Z,7.82
2023-07-24T07:16:40.425Z,6.88
2023-07-24T07:19:06.868Z,7.32
2023-07-24T07:21:33.296Z,7.88
2023-07-24T07:23:59.882Z,7.85
2023-07-24T07:26:26.506Z,8.02
2023-07-24T07:28:53.022Z,8.70
2023-07-24T07:31:19.459Z,7.80
2023-07-24T07:33:45.973Z,8.05
2023-07-24T07:36:13.252Z,8.07
2023-07-24T07:38:40.806Z,8.98
2023-07-24T07:41:07.506Z,8.57
2023-07-24T07:43:34.055Z,8.65
2023-07-24T07:46:00.505Z,8.55
2023-07-24T07:48:27.005Z,8.88
2023-07-24T07:50:53.544Z,8.77
2023-07-24T07:53:19.954Z,8.70
2023-07-24T07:55:46.583Z,8.68
2023-07-24T07:58:13.170Z,8.70
2023-07-24T08:00:40.811Z,8.85
2023-07-24T08:03:07.532Z,9.00
2023-07-24T08:05:34.119Z,9.68
2023-07-24T08:08:00.564Z,10.35
2023-07-24T08:10:27.055Z,11.10
2023-07-24T08:12:53.490Z,11.25
2023-07-24T08:15:19.924Z,11.85
2023-07-24T08:17:46.448Z,11.43
2023-07-24T08:20:13.014Z,12.77
2023-07-24T08:22:39.476Z,11.52
2023-07-24T08:25:06.433Z,12.05
2023-07-24T08:27:34.525Z,10.95
2023-07-24T08:30:02.742Z,10.80
2023-07-24T08:32:29.455Z,10.82
2023-07-24T08:34:55.877Z,10.85
2023-07-24T08:37:22.382Z,10.55
2023-07-24T08:39:48.840Z,10.55
2023-07-24T08:42:15.440Z,11.05
2023-07-24T08:44:43.071Z,10.30
2023-07-24T08:47:12.362Z,10.18
2023-07-24T08:49:41.372Z,10.27
2023-07-24T08:52:10.593Z,10.18
2023-07-24T08:54:40.092Z,10.07
2023-07-24T08:57:09.757Z,10.25
2023-07-24T08:59:36.245Z,10.63
2023-07-24T09:02:02.830Z,10.30
2023-07-24T09:04:29.765Z,10.43
2023-07-24T09:06:58.133Z,10.70
2023-07-24T09:09:24.563Z,10.35
2023-07-24T09:11:52.928Z,10.73
2023-07-24T09:14:23.198Z,11.30
2023-07-24T09:16:49.798Z,10.25
2023-07-24T09:19:26.853Z,9.80
2023-07-24T09:21:53.510Z,8.55
2023-07-24T09:24:19.936Z,10.15
2023-07-24T09:26:58.648Z,9.70
2023-07-24T09:29:32.557Z,9.55
2023-07-24T09:32:00.085Z,9.30
2023-07-24T09:34:29.570Z,8.70
2023-07-24T09:36:56.701Z,8.88
2023-07-24T09:39:30.472Z,8.20
2023-07-24T09:42:07.050Z,8.10
2023-07-24T09:44:33.750Z,8.15
2023-07-24T09:47:24.572Z,8.32
2023-07-24T09:49:48.025Z,8.75
2023-07-24T09:52:18.954Z,8.15
2023-07-24T09:54:58.516Z,7.60
2023-07-24T09:57:25.334Z,7.07
2023-07-24T09:59:53.872Z,7.78
2023-07-24T10:02:20.534Z,7.93
2023-07-24T10:04:47.815Z,7.60
2023-07-24T10:07:14.854Z,7.30
2023-07-24T10:09:44.230Z,6.95
2023-07-24T10:12:11.078Z,7.65
2023-07-24T10:14:38.545Z,7.93
2023-07-24T10:17:05.338Z,7.88
2023-07-24T10:19:41.089Z,7.20
2023-07-24T10:22:07.798Z,6.97
2023-07-24T10:24:41.763Z,7.25
2023-07-24T10:27:09.024Z,7.32
2023-07-24T10:29:37.175Z,6.15
2023-07-24T10:32:04.087Z,5.68
2023-07-24T10:34:40.275Z,6.50
2023-07-24T10:37:10.204Z,5.90
2023-07-24T10:42:10.473Z,5.13
2023-07-24T10:44:37.395Z,5.07
2023-07-24T10:47:04.348Z,5.05
2023-07-24T10:49:30.776Z,5.40
2023-07-24T10:52:00.367Z,4.90
2023-07-24T10:54:26.831Z,4.75
2023-07-24T10:57:03.234Z,4.93
2023-07-24T10:59:41.920Z,4.82
2023-07-24T11:02:08.455Z,4.53
2023-07-24T11:04:35.613Z,5.78
2023-07-24T11:07:02.516Z,4.78
2023-07-24T11:09:41.252Z,5.05
2023-07-24T11:12:15.737Z,5.70
2023-07-24T11:14:52.498Z,5.25
2023-07-24T11:17:19.009Z,5.50
2023-07-24T11:19:45.499Z,5.25
2023-07-24T11:22:12.190Z,4.97
2023-07-24T11:24:48.440Z,4.78
2023-07-24T11:27:18.669Z,5.32
2023-07-24T11:29:50.260Z,4.82
2023-07-24T11:32:21.691Z,4.57
2023-07-24T11:34:49.777Z,5.00
2023-07-24T11:37:17.366Z,5.22
2023-07-24T11:39:43.815Z,5.40
2023-07-24T11:42:10.261Z,5.20
2023-07-24T11:44:36.705Z,5.57
2023-07-24T11:47:05.491Z,4.93
2023-07-24T11:49:32.766Z,5.03
2023-07-24T11:52:06.936Z,4.80
2023-07-24T11:54:36.575Z,4.68
2023-07-24T11:57:03.274Z,5.50
2023-07-24T11:59:37.985Z,5.57
2023-07-24T12:02:04.771Z,4.70
2023-07-24T12:04:32.076Z,5.00
2023-07-24T12:06:59.141Z,5.05
2023-07-24T12:09:30.895Z,5.07
2023-07-24T12:12:00.168Z,5.20
2023-07-24T12:14:26.711Z,5.25
2023-07-24T12:17:10.737Z,5.25
2023-07-24T12:19:37.349Z,5.70
2023-07-24T12:22:05.220Z,5.00
2023-07-24T12:24:31.780Z,4.57
2023-07-24T12:26:58.245Z,4.50
2023-07-24T12:29:24.723Z,4.32
2023-07-24T12:31:51.181Z,4.40
2023-07-24T12:34:17.594Z,4.82
2023-07-24T12:36:44.620Z,5.53
2023-07-24T12:39:11.069Z,5.38
2023-07-24T12:41:37.474Z,5.25
2023-07-24T12:44:03.988Z,5.82
2023-07-24T12:46:30.917Z,5.63
2023-07-24T12:48:57.326Z,5.40
2023-07-24T12:51:23.817Z,5.65
2023-07-24T12:53:52.883Z,5.63
2023-07-24T12:56:22.087Z,5.03
2023-07-24T12:58:48.501Z,4.47
2023-07-24T13:01:14.994Z,4.13
2023-07-24T13:03:41.719Z,4.45
2023-07-24T13:06:08.334Z,3.88
2023-07-24T13:08:34.742Z,4.15
2023-07-24T13:11:01.290Z,4.18
2023-07-24T13:13:28.303Z,3.83
2023-07-24T13:15:55.020Z,3.95
2023-07-24T13:18:27.604Z,3.60
2023-07-24T13:20:55.185Z,3.50
2023-07-24T13:23:21.616Z,3.83
2023-07-24T13:25:48.049Z,3.30
2023-07-24T13:28:14.749Z,3.50
2023-07-24T13:30:41.180Z,3.50
2023-07-24T13:33:08.272Z,2.65
2023-07-24T13:35:34.760Z,3.13
2023-07-24T13:38:01.175Z,3.03
2023-07-24T13:40:27.856Z,2.90
2023-07-24T13:42:54.398Z,3.05
2023-07-24T13:45:20.917Z,2.63
2023-07-24T13:47:47.384Z,2.63
2023-07-24T13:50:13.812Z,3.17
2023-07-24T13:52:40.276Z,2.80
2023-07-24T13:55:07.006Z,2.97
2023-07-24T13:57:33.413Z,3.28
2023-07-24T13:59:59.863Z,2.70
2023-07-24T14:02:26.365Z,3.35
2023-07-24T14:04:54.323Z,3.00
2023-07-24T14:07:20.841Z,3.13
2023-07-24T14:09:47.393Z,3.50
2023-07-24T14:12:13.846Z,3.22
2023-07-24T14:14:40.360Z,3.08
2023-07-24T14:17:06.875Z,3.95
2023-07-24T14:19:33.422Z,3.20
2023-07-24T14:21:59.941Z,3.15
2023-07-24T14:24:26.411Z,2.78
2023-07-24T14:26:52.878Z,2.63
2023-07-24T14:29:19.750Z,2.65
2023-07-24T14:31:46.211Z,2.97
2023-07-24T14:34:13.578Z,2.70
2023-07-24T14:36:40.309Z,2.60
2023-07-24T14:39:08.906Z,2.70
2023-07-24T14:41:35.854Z,3.25
2023-07-24T14:44:02.337Z,2.60
2023-07-24T14:46:28.836Z,2.58
2023-07-24T14:48:55.368Z,2.95
2023-07-24T14:51:21.816Z,2.80
2023-07-24T14:53:48.235Z,2.90
2023-07-24T14:56:14.646Z,3.10
2023-07-24T14:58:43.388Z,2.67
2023-07-24T15:01:10.017Z,2.92
2023-07-24T15:03:36.531Z,2.85
2023-07-24T15:06:05.679Z,2.92
2023-07-24T15:08:32.157Z,2.60
2023-07-24T15:10:58.611Z,3.22
2023-07-24T15:13:25.669Z,2.95
2023-07-24T15:15:52.158Z,3.05
2023-07-24T15:18:18.777Z,3.38
2023-07-24T15:20:45.203Z,2.97
2023-07-24T15:23:12.055Z,3.10
2023-07-24T15:25:38.460Z,3.00
2023-07-24T15:28:05.091Z,3.30
2023-07-24T15:30:32.554Z,2.97
2023-07-24T15:32:59.195Z,3.25
2023-07-24T15:35:25.693Z,3.30
2023-07-24T15:37:52.161Z,2.75
2023-07-24T15:40:18.744Z,3.00
2023-07-24T15:42:45.636Z,3.17
2023-07-24T15:45:12.163Z,2.90
2023-07-24T15:47:38.652Z,3.22
2023-07-24T15:50:05.767Z,3.88
2023-07-24T15:52:33.042Z,3.03
2023-07-24T15:55:00.628Z,3.20
2023-07-24T15:57:27.135Z,3.00
2023-07-24T15:59:53.620Z,2.85
2023-07-24T16:02:20.133Z,3.08
2023-07-24T16:04:46.626Z,2.60
2023-07-24T16:07:13.122Z,2.90
2023-07-24T16:09:39.523Z,3.20
2023-07-24T16:12:06.370Z,2.80
2023-07-24T16:14:32.792Z,2.60
2023-07-24T16:16:59.236Z,3.13
2023-07-24T16:19:25.723Z,3.00
2023-07-24T16:21:52.739Z,2.55
2023-07-24T16:24:21.098Z,2.85
2023-07-24T16:26:48.334Z,2.78
2023-07-24T16:29:15.413Z,2.80
2023-07-24T16:31:42.231Z,2.75
2023-07-24T16:34:08.941Z,3.00
2023-07-24T16:36:36.258Z,2.75
2023-07-24T16:39:03.748Z,3.25
2023-07-24T16:41:31.314Z,2.80
2023-07-24T16:44:01.864Z,2.80
2023-07-24T16:46:29.125Z,2.45
2023-07-24T16:48:55.548Z,2.55
2023-07-24T16:51:22.052Z,2.95
2023-07-24T16:53:48.524Z,3.15
2023-07-24T16:56:14.938Z,2.35
2023-07-24T16:58:41.432Z,2.80
2023-07-24T17:01:08.004Z,2.80
2023-07-24T17:03:34.513Z,2.97
2023-07-24T17:06:00.993Z,2.70
2023-07-24T17:08:27.430Z,2.90
2023-07-24T17:10:53.858Z,2.60
2023-07-24T17:13:20.362Z,2.70
2023-07-24T17:15:46.804Z,2.75
2023-07-24T17:18:13.220Z,2.78
2023-07-24T17:20:39.722Z,3.03
2023-07-24T17:23:07.012Z,2.80
2023-07-24T17:25:33.666Z,2.97
2023-07-24T17:28:00.125Z,2.63
2023-07-24T17:30:26.727Z,2.95
2023-07-24T17:32:53.287Z,2.60
2023-07-24T17:35:19.766Z,2.70
2023-07-24T17:37:46.226Z,2.80
2023-07-24T17:40:12.827Z,2.30
2023-07-24T17:42:39.289Z,2.75
2023-07-24T17:45:07.264Z,2.90
2023-07-24T17:47:33.998Z,2.83
2023-07-24T17:50:06.605Z,2.70
2023-07-24T17:52:34.955Z,2.13
2023-07-24T17:55:01.463Z,2.58
2023-07-24T17:57:27.981Z,2.72
2023-07-24T17:59:54.393Z,2.75
2023-07-24T18:02:20.897Z,2.55
2023-07-24T18:04:47.377Z,2.28
2023-07-24T18:07:13.858Z,2.70
2023-07-24T18:09:40.305Z,2.75
2023-07-24T18:12:07.419Z,2.63
2023-07-24T18:14:33.842Z,2.67
2023-07-24T18:17:00.257Z,2.60
2023-07-24T18:19:26.684Z,3.25
2023-07-24T18:21:53.118Z,2.38
2023-07-24T18:24:21.641Z,2.47
2023-07-24T18:26:48.138Z,2.30
2023-07-24T18:29:15.091Z,2.20
2023-07-24T18:31:41.581Z,2.22
2023-07-24T18:34:08.051Z,2.33
2023-07-24T18:36:34.503Z,2.67
2023-07-24T18:39:01.183Z,2.28
2023-07-24T18:41:27.669Z,2.00
2023-07-24T18:43:54.141Z,2.33
2023-07-24T18:46:20.620Z,2.17
2023-07-24T18:48:47.164Z,1.90
2023-07-24T18:51:14.056Z,2.38
2023-07-24T18:53:40.926Z,2.47
2023-07-24T18:56:07.426Z,2.35
2023-07-24T18:58:33.855Z,2.58
2023-07-24T19:01:00.319Z,2.28
2023-07-24T19:03:26.758Z,1.90
2023-07-24T19:05:53.857Z,2.08
2023-07-24T19:08:20.301Z,2.03
2023-07-24T19:10:46.959Z,1.73
2023-07-24T19:13:13.391Z,1.80
2023-07-24T19:15:39.830Z,2.20
2023-07-24T19:18:06.268Z,1.83
2023-07-24T19:20:33.571Z,1.88
2023-07-24T19:23:00.393Z,1.70
2023-07-24T19:25:27.957Z,2.40
2023-07-24T19:27:54.438Z,1.83
2023-07-24T19:30:20.885Z,1.80
2023-07-24T19:32:47.491Z,1.55
2023-07-24T19:35:13.994Z,1.90
2023-07-24T19:37:41.715Z,1.55
2023-07-24T19:40:08.944Z,1.67
2023-07-24T19:42:35.486Z,2.00
2023-07-24T19:45:02.069Z,2.17
2023-07-24T19:47:28.537Z,2.47
2023-07-24T19:49:54.991Z,1.50
2023-07-24T19:52:23.633Z,1.75
2023-07-24T19:54:51.795Z,1.52
2023-07-24T19:57:18.263Z,1.63
2023-07-24T19:59:44.694Z,1.30
2023-07-24T20:02:12.379Z,1.40
2023-07-24T20:04:38.865Z,1.92
2023-07-24T20:07:06.414Z,1.67
2023-07-24T20:09:32.894Z,1.48
2023-07-24T20:11:59.558Z,1.38
2023-07-24T20:14:26.003Z,1.33
2023-07-24T20:16:52.423Z,1.48
2023-07-24T20:19:18.980Z,1.55
2023-07-24T20:21:45.450Z,1.40
2023-07-24T20:24:13.693Z,1.50
2023-07-24T20:26:40.715Z,1.60
2023-07-24T20:29:07.316Z,1.90
2023-07-24T20:31:34.464Z,1.98
2023-07-24T20:34:01.234Z,1.27
2023-07-24T20:36:27.690Z,1.60
2023-07-24T20:38:54.158Z,1.40
2023-07-24T20:41:20.602Z,1.80
2023-07-24T20:43:47.062Z,1.30
2023-07-24T20:46:15.610Z,1.30
2023-07-24T20:48:42.663Z,1.50
2023-07-24T20:51:20.060Z,1.55
2023-07-24T20:53:46.560Z,1.30
2023-07-24T20:56:13.086Z,1.00
2023-07-24T20:58:39.790Z,1.05
2023-07-24T21:01:08.158Z,1.27
2023-07-24T21:03:35.063Z,1.13
2023-07-24T21:06:01.620Z,1.08
2023-07-24T21:08:28.129Z,1.33
2023-07-24T21:10:55.267Z,1.77
2023-07-24T21:13:21.768Z,1.33
2023-07-24T21:15:51.161Z,1.30
2023-07-24T21:18:18.717Z,1.50
2023-07-24T21:20:46.874Z,1.35
2023-07-24T21:23:14.288Z,1.27
2023-07-24T21:25:51.254Z,1.40
2023-07-24T21:28:17.689Z,1.30
2023-07-24T21:30:44.297Z,1.67
2023-07-24T21:33:10.863Z,1.20
2023-07-24T21:35:37.309Z,1.40
2023-07-24T21:38:03.722Z,1.38
2023-07-24T21:40:30.189Z,1.33
2023-07-24T21:42:56.877Z,1.33
2023-07-24T21:45:23.464Z,1.40
2023-07-24T21:47:49.953Z,1.73
2023-07-24T21:50:16.565Z,1.42
2023-07-24T21:52:46.339Z,1.67
2023-07-24T21:55:12.894Z,1.50
2023-07-24T21:57:39.389Z,1.10
2023-07-24T22:00:06.526Z,1.55
2023-07-24T22:02:33.001Z,1.30
2023-07-24T22:04:59.449Z,1.70
2023-07-24T22:07:25.877Z,1.33
2023-07-24T22:09:52.288Z,1.80
2023-07-24T22:12:18.758Z,1.40
2023-07-24T22:14:45.174Z,1.60
2023-07-24T22:17:11.635Z,1.42
2023-07-24T22:19:38.136Z,1.90
2023-07-24T22:22:04.828Z,2.05
2023-07-24T22:24:32.698Z,1.73
2023-07-24T22:26:59.193Z,2.35
2023-07-24T22:29:26.182Z,1.73
2023-07-24T22:31:52.613Z,2.35
2023-07-24T22:34:19.038Z,1.83
2023-07-24T22:36:45.634Z,2.50
2023-07-24T22:39:12.070Z,1.50
2023-07-24T22:41:38.490Z,2.53
2023-07-24T22:44:06.345Z,1.80
2023-07-24T22:46:32.878Z,1.52
2023-07-24T22:48:59.333Z,1.70
2023-07-24T22:51:25.762Z,1.83
2023-07-24T22:53:55.890Z,2.28
2023-07-24T22:56:22.752Z,1.83
2023-07-24T22:59:19.569Z,1.95
2023-07-24T23:01:46.619Z,1.83
2023-07-24T23:04:13.664Z,1.55
2023-07-24T23:06:40.185Z,2.10
2023-07-24T23:09:06.731Z,1.73
2023-07-24T23:11:33.702Z,1.75
2023-07-24T23:14:00.646Z,2.53
2023-07-24T23:16:27.151Z,1.98
2023-07-24T23:18:53.640Z,2.70
2023-07-24T23:21:20.100Z,2.00
2023-07-24T23:23:47.016Z,2.00
2023-07-24T23:26:13.470Z,2.33
2023-07-24T23:28:40.386Z,2.13
2023-07-24T23:31:07.573Z,1.92
2023-07-24T23:33:34.749Z,2.22
2023-07-24T23:36:01.244Z,2.33
2023-07-24T23:38:27.706Z,1.98
2023-07-24T23:40:58.223Z,1.88
2023-07-24T23:43:24.725Z,2.05
2023-07-24T23:45:51.304Z,2.05
2023-07-24T23:48:18.117Z,1.67
2023-07-24T23:50:44.558Z,1.77
2023-07-24T23:53:11.168Z,1.77
2023-07-24T23:55:37.629Z,1.80
2023-07-24T23:58:04.104Z,1.58
